createdAt,value
2023-03-23T00:00:00.695Z,100040
2023-03-23T00:01:00.484Z,100030
2023-03-23T00:02:00.257Z,100030
2023-03-23T00:03:00.281Z,100030
2023-03-23T00:04:00.260Z,100030
2023-03-23T00:05:00.271Z,100030
2023-03-23T00:06:00.448Z,100030
2023-03-23T00:07:00.273Z,100020
2023-03-23T00:08:00.259Z,100020
2023-03-23T00:09:00.953Z,100020
2023-03-23T00:10:00.355Z,100020
2023-03-23T00:11:00.268Z,100030
2023-03-23T00:12:00.576Z,100030
2023-03-23T00:13:00.287Z,100040
2023-03-23T00:14:00.811Z,100040
2023-03-23T00:15:00.243Z,100040
2023-03-23T00:16:00.269Z,100040
2023-03-23T00:17:00.276Z,100040
2023-03-23T00:18:00.288Z,100040
2023-03-23T00:19:01.436Z,100030
2023-03-23T00:20:00.782Z,100030
2023-03-23T00:21:00.256Z,100020
2023-03-23T00:22:00.262Z,100020
2023-03-23T00:23:00.280Z,100030
2023-03-23T00:24:01.379Z,100030
2023-03-23T00:25:00.335Z,100030
2023-03-23T00:26:00.313Z,100030
2023-03-23T00:27:00.255Z,100040
2023-03-23T00:28:00.266Z,100040
2023-03-23T00:29:01.445Z,100040
2023-03-23T00:30:00.353Z,100040
2023-03-23T00:31:02.113Z,100040
2023-03-23T00:32:00.369Z,100040
2023-03-23T00:33:00.265Z,100040
2023-03-23T00:34:00.455Z,100040
2023-03-23T00:35:00.283Z,100040
2023-03-23T00:36:00.305Z,100040
2023-03-23T00:37:00.275Z,100040
2023-03-23T00:38:00.280Z,100040
2023-03-23T00:39:01.355Z,100040
2023-03-23T00:40:00.303Z,100040
2023-03-23T00:41:00.376Z,100040
2023-03-23T00:42:00.263Z,100040
2023-03-23T00:43:00.266Z,100040
2023-03-23T00:44:00.277Z,100040
2023-03-23T00:45:00.268Z,100040
2023-03-23T00:46:00.298Z,100040
2023-03-23T00:47:00.643Z,100040
2023-03-23T00:48:00.329Z,100040
2023-03-23T00:49:00.273Z,100040
2023-03-23T00:50:00.280Z,100040
2023-03-23T00:51:00.281Z,100040
2023-03-23T00:52:00.736Z,100040
2023-03-23T00:53:00.270Z,100040
2023-03-23T00:54:00.262Z,100040
2023-03-23T00:55:00.288Z,100030
2023-03-23T00:56:00.278Z,100030
2023-03-23T00:57:01.032Z,100030
2023-03-23T00:58:00.285Z,100030
2023-03-23T00:59:00.273Z,100020
2023-03-23T01:00:05.623Z,100020
2023-03-23T01:01:00.309Z,100020
2023-03-23T01:02:00.260Z,100020
2023-03-23T01:03:00.320Z,100020
2023-03-23T01:04:01.065Z,100020
2023-03-23T01:05:00.637Z,100020
2023-03-23T01:06:04.641Z,100020
2023-03-23T01:07:00.262Z,100020
2023-03-23T01:08:00.511Z,100020
2023-03-23T01:09:00.788Z,100020
2023-03-23T01:10:00.282Z,100020
2023-03-23T01:11:02.719Z,100010
2023-03-23T01:12:00.261Z,100010
2023-03-23T01:13:00.284Z,100000
2023-03-23T01:14:00.695Z,100000
2023-03-23T01:15:00.285Z,100000
2023-03-23T01:16:00.342Z,100000
2023-03-23T01:17:00.294Z,99990
2023-03-23T01:18:00.258Z,99990
2023-03-23T01:19:00.278Z,99990
2023-03-23T01:20:00.372Z,99990
2023-03-23T01:21:04.294Z,100000
2023-03-23T01:22:00.303Z,100000
2023-03-23T01:23:00.294Z,99980
2023-03-23T01:24:00.368Z,99980
2023-03-23T01:25:00.292Z,99960
2023-03-23T01:26:04.101Z,99960
2023-03-23T01:27:00.302Z,99960
2023-03-23T01:28:00.316Z,99960
2023-03-23T01:29:00.261Z,99960
2023-03-23T01:30:00.286Z,99960
2023-03-23T01:31:01.261Z,99950
2023-03-23T01:32:00.299Z,99950
2023-03-23T01:33:00.279Z,99970
2023-03-23T01:34:00.282Z,99970
2023-03-23T01:35:00.282Z,99950
2023-03-23T01:36:04.612Z,99950
2023-03-23T01:37:00.281Z,99950
2023-03-23T01:38:00.277Z,99950
2023-03-23T01:39:00.801Z,99960
2023-03-23T01:40:00.282Z,99960
2023-03-23T01:41:00.560Z,99960
2023-03-23T01:42:00.266Z,99960
2023-03-23T01:43:00.278Z,99950
2023-03-23T01:44:03.167Z,99950
2023-03-23T01:45:10.216Z,99950
2023-03-23T01:46:00.283Z,99950
2023-03-23T01:47:00.292Z,99950
2023-03-23T01:48:00.247Z,99950
2023-03-23T01:49:03.656Z,99950
2023-03-23T01:50:00.361Z,99950
2023-03-23T01:51:04.296Z,99950
2023-03-23T01:52:02.622Z,99950
2023-03-23T01:53:01.572Z,99950
2023-03-23T01:54:02.314Z,99950
2023-03-23T01:55:00.325Z,99940
2023-03-23T01:56:01.198Z,99940
2023-03-23T01:57:10.219Z,99950
2023-03-23T01:58:00.438Z,99950
2023-03-23T01:59:00.274Z,99950
2023-03-23T02:00:02.628Z,99950
2023-03-23T02:01:03.596Z,99940
2023-03-23T02:02:00.527Z,99940
2023-03-23T02:03:00.965Z,99930
2023-03-23T02:04:00.320Z,99930
2023-03-23T02:05:02.383Z,99930
2023-03-23T02:06:00.328Z,99930
2023-03-23T02:07:00.346Z,99930
2023-03-23T02:08:01.985Z,99930
2023-03-23T02:09:00.812Z,99930
2023-03-23T02:10:00.346Z,99930
2023-03-23T02:11:00.320Z,99920
2023-03-23T02:12:01.312Z,99920
2023-03-23T02:13:01.751Z,99920
2023-03-23T02:14:01.276Z,99920
2023-03-23T02:15:00.418Z,99920
2023-03-23T02:16:06.615Z,99920
2023-03-23T02:17:05.073Z,99920
2023-03-23T02:18:07.697Z,99920
2023-03-23T02:19:00.291Z,99920
2023-03-23T02:20:07.710Z,99920
2023-03-23T02:21:10.238Z,99910
2023-03-23T02:22:10.216Z,99910
2023-03-23T02:23:10.204Z,99900
2023-03-23T02:24:07.692Z,99900
2023-03-23T02:25:10.228Z,99910
2023-03-23T02:26:10.207Z,99910
2023-03-23T02:27:10.204Z,99900
2023-03-23T02:28:10.240Z,99900
2023-03-23T02:29:07.653Z,99900
2023-03-23T02:30:00.281Z,99900
2023-03-23T02:31:09.357Z,99910
2023-03-23T02:32:00.261Z,99910
2023-03-23T02:33:10.208Z,99910
2023-03-23T02:34:03.524Z,99910
2023-03-23T02:35:02.428Z,99910
2023-03-23T02:36:08.074Z,99910
2023-03-23T02:37:03.312Z,99910
2023-03-23T02:38:02.303Z,99910
2023-03-23T02:39:10.203Z,99910
2023-03-23T02:40:10.227Z,99910
2023-03-23T02:41:01.634Z,99920
2023-03-23T02:42:03.751Z,99920
2023-03-23T02:43:01.728Z,99910
2023-03-23T02:44:01.885Z,99910
2023-03-23T02:45:03.484Z,99910
2023-03-23T02:46:01.004Z,99910
2023-03-23T02:47:01.926Z,99910
2023-03-23T02:48:02.419Z,99910
2023-03-23T02:49:02.075Z,99900
2023-03-23T02:50:00.402Z,99900
2023-03-23T02:51:01.843Z,99900
2023-03-23T02:52:01.985Z,99900
2023-03-23T02:53:01.218Z,99900
2023-03-23T02:54:01.066Z,99900
2023-03-23T02:55:01.581Z,99900
2023-03-23T02:56:01.105Z,99900
2023-03-23T02:57:00.537Z,99910
2023-03-23T02:58:00.438Z,99910
2023-03-23T02:59:00.282Z,99910
2023-03-23T03:00:00.419Z,99910
2023-03-23T03:01:10.236Z,99910
2023-03-23T03:02:04.146Z,99910
2023-03-23T03:03:00.960Z,99910
2023-03-23T03:04:03.454Z,99910
2023-03-23T03:05:10.206Z,99900
2023-03-23T03:06:07.814Z,99900
2023-03-23T03:07:06.938Z,99900
2023-03-23T03:08:10.212Z,99900
2023-03-23T03:09:10.201Z,99910
2023-03-23T03:10:03.959Z,99910
2023-03-23T03:11:06.989Z,99900
2023-03-23T03:12:04.045Z,99900
2023-03-23T03:13:01.261Z,99900
2023-03-23T03:14:04.661Z,99900
2023-03-23T03:15:03.573Z,99900
2023-03-23T03:16:07.313Z,99900
2023-03-23T03:17:04.239Z,99910
2023-03-23T03:18:07.503Z,99910
2023-03-23T03:19:03.535Z,99910
2023-03-23T03:20:02.098Z,99910
2023-03-23T03:21:03.803Z,99910
2023-03-23T03:22:00.452Z,99910
2023-03-23T03:23:01.041Z,99910
2023-03-23T03:24:01.532Z,99910
2023-03-23T03:25:01.201Z,99910
2023-03-23T03:26:02.258Z,99910
2023-03-23T03:27:02.297Z,99910
2023-03-23T03:28:01.063Z,99910
2023-03-23T03:29:01.073Z,99900
2023-03-23T03:30:02.873Z,99900
2023-03-23T03:31:01.585Z,99920
2023-03-23T03:32:02.004Z,99920
2023-03-23T03:33:00.344Z,99910
2023-03-23T03:34:00.300Z,99910
2023-03-23T03:35:01.139Z,99910
2023-03-23T03:36:02.693Z,99910
2023-03-23T03:37:00.305Z,99910
2023-03-23T03:38:05.072Z,99910
2023-03-23T03:39:03.197Z,99910
2023-03-23T03:40:00.277Z,99910
2023-03-23T03:41:00.266Z,99910
2023-03-23T03:42:00.507Z,99910
2023-03-23T03:43:00.336Z,99910
2023-03-23T03:44:00.379Z,99910
2023-03-23T03:45:00.296Z,99910
2023-03-23T03:46:00.263Z,99910
2023-03-23T03:47:00.336Z,99910
2023-03-23T03:48:00.289Z,99910
2023-03-23T03:49:03.788Z,99910
2023-03-23T03:50:00.319Z,99910
2023-03-23T03:51:00.382Z,99920
2023-03-23T03:52:00.273Z,99920
2023-03-23T03:53:00.278Z,99920
2023-03-23T03:54:00.315Z,99920
2023-03-23T03:55:00.279Z,99910
2023-03-23T03:56:00.263Z,99910
2023-03-23T03:57:00.272Z,99910
2023-03-23T03:58:00.312Z,99910
2023-03-23T03:59:00.268Z,99920
2023-03-23T04:00:00.367Z,99920
2023-03-23T04:01:00.554Z,99910
2023-03-23T04:02:00.258Z,99910
2023-03-23T04:03:00.278Z,99920
2023-03-23T04:04:00.279Z,99920
2023-03-23T04:05:00.275Z,99910
2023-03-23T04:06:00.296Z,99910
2023-03-23T04:07:00.308Z,99920
2023-03-23T04:08:09.555Z,99920
2023-03-23T04:09:08.299Z,99920
2023-03-23T04:10:00.277Z,99920
2023-03-23T04:11:00.298Z,99920
2023-03-23T04:12:00.276Z,99920
2023-03-23T04:13:00.318Z,99920
2023-03-23T04:14:00.292Z,99920
2023-03-23T04:15:06.315Z,99920
2023-03-23T04:16:07.087Z,99920
2023-03-23T04:17:00.344Z,99920
2023-03-23T04:18:00.259Z,99920
2023-03-23T04:19:00.630Z,99920
2023-03-23T04:20:00.342Z,99920
2023-03-23T04:21:01.413Z,99920
2023-03-23T04:22:00.268Z,99920
2023-03-23T04:23:00.454Z,99910
2023-03-23T04:24:00.316Z,99910
2023-03-23T04:25:00.717Z,99930
2023-03-23T04:26:00.586Z,99930
2023-03-23T04:27:02.865Z,99920
2023-03-23T04:28:01.632Z,99920
2023-03-23T04:29:00.280Z,99930
2023-03-23T04:30:00.288Z,99930
2023-03-23T04:31:00.391Z,99930
2023-03-23T04:32:00.280Z,99930
2023-03-23T04:33:00.262Z,99930
2023-03-23T04:34:00.825Z,99930
2023-03-23T04:35:12.488Z,99930
2023-03-23T04:36:00.813Z,99930
2023-03-23T04:37:00.260Z,99940
2023-03-23T04:38:00.266Z,99940
2023-03-23T04:39:00.269Z,99940
2023-03-23T04:40:00.316Z,99940
2023-03-23T04:41:00.526Z,99940
2023-03-23T04:42:00.294Z,99940
2023-03-23T04:43:00.280Z,99950
2023-03-23T04:44:00.274Z,99950
2023-03-23T04:45:00.265Z,99950
2023-03-23T04:46:00.303Z,99950
2023-03-23T04:47:00.827Z,99950
2023-03-23T04:48:00.371Z,99950
2023-03-23T04:49:00.272Z,99950
2023-03-23T04:50:00.290Z,99950
2023-03-23T04:51:02.406Z,99950
2023-03-23T04:52:00.261Z,99950
2023-03-23T04:53:00.840Z,99950
2023-03-23T04:54:00.281Z,99950
2023-03-23T04:55:00.283Z,99950
2023-03-23T04:56:00.280Z,99950
2023-03-23T04:57:00.309Z,99940
2023-03-23T04:58:00.284Z,99940
2023-03-23T04:59:00.283Z,99950
2023-03-23T05:00:00.816Z,99950
2023-03-23T05:01:00.706Z,99940
2023-03-23T05:02:14.262Z,99940
2023-03-23T05:03:00.290Z,99950
2023-03-23T05:04:00.267Z,99950
2023-03-23T05:05:00.262Z,99950
2023-03-23T05:06:01.676Z,99950
2023-03-23T05:07:00.293Z,99950
2023-03-23T05:08:00.294Z,99950
2023-03-23T05:09:00.258Z,99960
2023-03-23T05:10:00.263Z,99960
2023-03-23T05:11:00.574Z,99950
2023-03-23T05:12:08.920Z,99950
2023-03-23T05:13:00.263Z,99940
2023-03-23T05:14:00.283Z,99940
2023-03-23T05:15:00.294Z,99940
2023-03-23T05:16:03.145Z,99940
2023-03-23T05:17:00.534Z,99950
2023-03-23T05:18:00.266Z,99950
2023-03-23T05:19:00.277Z,99950
2023-03-23T05:20:00.783Z,99950
2023-03-23T05:21:00.788Z,99950
2023-03-23T05:22:00.387Z,99950
2023-03-23T05:23:00.303Z,99950
2023-03-23T05:24:00.265Z,99950
2023-03-23T05:25:00.286Z,99950
2023-03-23T05:26:00.272Z,99950
2023-03-23T05:27:00.265Z,99940
2023-03-23T05:28:00.267Z,99940
2023-03-23T05:29:00.281Z,99950
2023-03-23T05:30:00.265Z,99950
2023-03-23T05:31:00.266Z,99940
2023-03-23T05:32:00.307Z,99940
2023-03-23T05:33:00.676Z,99950
2023-03-23T05:34:00.264Z,99950
2023-03-23T05:35:00.696Z,99950
2023-03-23T05:36:00.367Z,99950
2023-03-23T05:37:01.241Z,99950
2023-03-23T05:38:00.360Z,99950
2023-03-23T05:39:00.288Z,99950
2023-03-23T05:40:00.332Z,99950
2023-03-23T05:41:00.369Z,99950
2023-03-23T05:42:00.279Z,99950
2023-03-23T05:43:00.286Z,99950
2023-03-23T05:44:00.262Z,99950
2023-03-23T05:45:00.825Z,99960
2023-03-23T05:46:00.280Z,99960
2023-03-23T05:47:00.275Z,99960
2023-03-23T05:48:00.518Z,99960
2023-03-23T05:49:00.607Z,99960
2023-03-23T05:50:00.280Z,99960
2023-03-23T05:51:00.291Z,99950
2023-03-23T05:52:00.274Z,99950
2023-03-23T05:53:00.279Z,99960
2023-03-23T05:54:00.283Z,99960
2023-03-23T05:55:00.258Z,99960
2023-03-23T05:56:01.050Z,99960
2023-03-23T05:57:00.305Z,99960
2023-03-23T05:58:00.263Z,99960
2023-03-23T05:59:00.329Z,99960
2023-03-23T06:00:00.362Z,99960
2023-03-23T06:01:00.287Z,99960
2023-03-23T06:02:00.531Z,99960
2023-03-23T06:03:00.449Z,99960
2023-03-23T06:04:00.459Z,99960
2023-03-23T06:05:00.270Z,99960
2023-03-23T06:06:00.279Z,99960
2023-03-23T06:07:01.360Z,99960
2023-03-23T06:08:00.266Z,99960
2023-03-23T06:09:00.301Z,99970
2023-03-23T06:10:00.284Z,99970
2023-03-23T06:11:00.284Z,99980
2023-03-23T06:12:00.285Z,99980
2023-03-23T06:13:00.282Z,99970
2023-03-23T06:14:00.341Z,99970
2023-03-23T06:15:00.313Z,99970
2023-03-23T06:16:00.286Z,99970
2023-03-23T06:17:00.267Z,99970
2023-03-23T06:18:01.055Z,99970
2023-03-23T06:19:00.281Z,99970
2023-03-23T06:20:00.282Z,99970
2023-03-23T06:21:00.296Z,99980
2023-03-23T06:22:00.289Z,99980
2023-03-23T06:23:00.396Z,99980
2023-03-23T06:24:00.321Z,99980
2023-03-23T06:25:00.272Z,99990
2023-03-23T06:26:04.442Z,99990
2023-03-23T06:27:00.338Z,99990
2023-03-23T06:28:00.345Z,99990
2023-03-23T06:29:00.429Z,100000
2023-03-23T06:30:00.288Z,100000
2023-03-23T06:31:01.141Z,100000
2023-03-23T06:32:01.174Z,100000
2023-03-23T06:33:00.390Z,100010
2023-03-23T06:34:00.279Z,100010
2023-03-23T06:35:00.283Z,100010
2023-03-23T06:36:00.399Z,100010
2023-03-23T06:37:00.292Z,100010
2023-03-23T06:38:00.306Z,100010
2023-03-23T06:39:00.523Z,100020
2023-03-23T06:40:00.416Z,100020
2023-03-23T06:41:00.264Z,100020
2023-03-23T06:42:00.278Z,100020
2023-03-23T06:43:00.275Z,100020
2023-03-23T06:44:00.511Z,100020
2023-03-23T06:45:01.266Z,100020
2023-03-23T06:46:00.311Z,100020
2023-03-23T06:47:00.278Z,100020
2023-03-23T06:48:00.274Z,100020
2023-03-23T06:49:00.311Z,100030
2023-03-23T06:50:00.323Z,100030
2023-03-23T06:51:00.276Z,100030
2023-03-23T06:52:00.305Z,100030
2023-03-23T06:53:00.262Z,100030
2023-03-23T06:54:00.385Z,100030
2023-03-23T06:55:00.301Z,100030
2023-03-23T06:56:00.311Z,100030
2023-03-23T06:57:00.268Z,100030
2023-03-23T06:58:00.259Z,100030
2023-03-23T06:59:00.368Z,100030
2023-03-23T07:00:00.287Z,100030
2023-03-23T07:01:00.281Z,100030
2023-03-23T07:02:00.318Z,100030
2023-03-23T07:03:00.693Z,100040
2023-03-23T07:04:00.353Z,100040
2023-03-23T07:05:00.283Z,100040
2023-03-23T07:06:00.326Z,100040
2023-03-23T07:07:00.258Z,100040
2023-03-23T07:08:00.907Z,100040
2023-03-23T07:09:00.295Z,100040
2023-03-23T07:10:00.284Z,100040
2023-03-23T07:11:00.266Z,100040
2023-03-23T07:12:00.294Z,100040
2023-03-23T07:13:00.276Z,100040
2023-03-23T07:14:00.275Z,100040
2023-03-23T07:15:00.257Z,100040
2023-03-23T07:16:00.319Z,100040
2023-03-23T07:17:00.269Z,100050
2023-03-23T07:18:00.289Z,100050
2023-03-23T07:19:00.480Z,100060
2023-03-23T07:20:00.384Z,100060
2023-03-23T07:21:00.292Z,100060
2023-03-23T07:22:00.266Z,100060
2023-03-23T07:23:00.283Z,100060
2023-03-23T07:24:00.279Z,100060
2023-03-23T07:25:00.732Z,100070
2023-03-23T07:26:00.351Z,100070
2023-03-23T07:27:00.538Z,100060
2023-03-23T07:28:00.681Z,100060
2023-03-23T07:29:00.279Z,100060
2023-03-23T07:30:00.252Z,100060
2023-03-23T07:31:00.282Z,100070
2023-03-23T07:32:00.402Z,100070
2023-03-23T07:33:03.880Z,100060
2023-03-23T07:34:00.560Z,100060
2023-03-23T07:35:00.279Z,100060
2023-03-23T07:36:00.324Z,100060
2023-03-23T07:37:00.266Z,100060
2023-03-23T07:38:00.394Z,100060
2023-03-23T07:39:00.304Z,100060
2023-03-23T07:40:00.263Z,100060
2023-03-23T07:41:00.262Z,100050
2023-03-23T07:42:00.618Z,100050
2023-03-23T07:43:00.714Z,100050
2023-03-23T07:44:00.285Z,100050
2023-03-23T07:45:00.791Z,100060
2023-03-23T07:46:00.291Z,100060
2023-03-23T07:47:00.286Z,100070
2023-03-23T07:48:01.938Z,100070
2023-03-23T07:49:00.279Z,100070
2023-03-23T07:50:00.285Z,100070
2023-03-23T07:51:00.274Z,100080
2023-03-23T07:52:00.295Z,100080
2023-03-23T07:53:00.257Z,100070
2023-03-23T07:54:00.816Z,100070
2023-03-23T07:55:00.866Z,100070
2023-03-23T07:56:00.429Z,100070
2023-03-23T07:57:00.285Z,100080
2023-03-23T07:58:00.282Z,100080
2023-03-23T07:59:00.279Z,100080
2023-03-23T08:00:00.498Z,100080
2023-03-23T08:01:00.269Z,100080
2023-03-23T08:02:00.401Z,100080
2023-03-23T08:03:00.327Z,100080
2023-03-23T08:04:00.297Z,100080
2023-03-23T08:05:00.260Z,100080
2023-03-23T08:06:00.277Z,100080
2023-03-23T08:07:00.256Z,100090
2023-03-23T08:08:00.268Z,100090
2023-03-23T08:09:00.656Z,100090
2023-03-23T08:10:00.721Z,100090
2023-03-23T08:11:00.396Z,100100
2023-03-23T08:12:00.288Z,100100
2023-03-23T08:13:00.276Z,100090
2023-03-23T08:14:00.305Z,100090
2023-03-23T08:15:00.257Z,100100
2023-03-23T08:16:00.272Z,100100
2023-03-23T08:17:00.278Z,100100
2023-03-23T08:18:00.278Z,100100
2023-03-23T08:19:00.298Z,100100
2023-03-23T08:20:00.769Z,100100
2023-03-23T08:21:00.392Z,100110
2023-03-23T08:22:00.268Z,100110
2023-03-23T08:23:00.297Z,100120
2023-03-23T08:24:00.353Z,100120
2023-03-23T08:25:00.275Z,100130
2023-03-23T08:26:00.267Z,100130
2023-03-23T08:27:00.589Z,100130
2023-03-23T08:28:00.264Z,100130
2023-03-23T08:29:00.254Z,100130
2023-03-23T08:30:00.291Z,100130
2023-03-23T08:31:00.542Z,100120
2023-03-23T08:32:00.291Z,100120
2023-03-23T08:33:00.280Z,100120
2023-03-23T08:34:00.843Z,100120
2023-03-23T08:35:00.279Z,100120
2023-03-23T08:36:00.768Z,100120
2023-03-23T08:37:00.265Z,100130
2023-03-23T08:38:00.302Z,100130
2023-03-23T08:39:00.263Z,100130
2023-03-23T08:40:00.342Z,100130
2023-03-23T08:41:01.550Z,100140
2023-03-23T08:42:00.288Z,100140
2023-03-23T08:43:01.287Z,100130
2023-03-23T08:44:00.277Z,100130
2023-03-23T08:45:00.476Z,100120
2023-03-23T08:46:00.482Z,100120
2023-03-23T08:47:00.273Z,100110
2023-03-23T08:48:00.259Z,100110
2023-03-23T08:49:00.627Z,100110
2023-03-23T08:50:00.291Z,100110
2023-03-23T08:51:00.296Z,100120
2023-03-23T08:52:00.301Z,100120
2023-03-23T08:53:00.255Z,100120
2023-03-23T08:54:00.273Z,100120
2023-03-23T08:55:00.258Z,100110
2023-03-23T08:56:08.756Z,100110
2023-03-23T08:57:00.811Z,100120
2023-03-23T08:58:00.281Z,100120
2023-03-23T08:59:00.287Z,100120
2023-03-23T09:00:00.263Z,100120
2023-03-23T09:01:00.641Z,100130
2023-03-23T09:02:00.280Z,100130
2023-03-23T09:03:00.273Z,100130
2023-03-23T09:04:00.256Z,100130
2023-03-23T09:05:00.288Z,100120
2023-03-23T09:06:01.380Z,100120
2023-03-23T09:07:00.267Z,100130
2023-03-23T09:08:00.276Z,100130
2023-03-23T09:09:00.262Z,100140
2023-03-23T09:10:00.257Z,100140
2023-03-23T09:11:00.699Z,100140
2023-03-23T09:12:00.282Z,100140
2023-03-23T09:13:00.301Z,100140
2023-03-23T09:14:00.704Z,100140
2023-03-23T09:15:00.288Z,100140
2023-03-23T09:16:00.565Z,100140
2023-03-23T09:17:00.275Z,100140
2023-03-23T09:18:01.390Z,100140
2023-03-23T09:19:00.725Z,100130
2023-03-23T09:20:00.353Z,100130
2023-03-23T09:21:00.775Z,100120
2023-03-23T09:22:00.555Z,100120
2023-03-23T09:23:00.264Z,100110
2023-03-23T09:24:00.277Z,100110
2023-03-23T09:25:00.277Z,100110
2023-03-23T09:26:01.169Z,100110
2023-03-23T09:27:00.278Z,100110
2023-03-23T09:28:00.291Z,100110
2023-03-23T09:29:00.283Z,100120
2023-03-23T09:30:00.294Z,100120
2023-03-23T09:31:00.263Z,100120
2023-03-23T09:32:00.305Z,100120
2023-03-23T09:33:00.852Z,100120
2023-03-23T09:34:00.280Z,100120
2023-03-23T09:35:01.027Z,100140
2023-03-23T09:36:00.369Z,100140
2023-03-23T09:37:00.275Z,100140
2023-03-23T09:38:00.741Z,100140
2023-03-23T09:39:00.264Z,100140
2023-03-23T09:40:06.973Z,100140
2023-03-23T09:41:04.485Z,100140
2023-03-23T09:42:00.243Z,100140
2023-03-23T09:43:03.567Z,100150
2023-03-23T09:44:05.939Z,100150
2023-03-23T09:45:03.524Z,100140
2023-03-23T09:46:00.260Z,100140
2023-03-23T09:47:10.212Z,100140
2023-03-23T09:48:10.194Z,100140
2023-03-23T09:49:07.329Z,100150
2023-03-23T09:50:04.857Z,100150
2023-03-23T09:51:03.027Z,100150
2023-03-23T09:52:10.217Z,100150
2023-03-23T09:53:04.798Z,100140
2023-03-23T09:54:03.418Z,100140
2023-03-23T09:55:00.409Z,100160
2023-03-23T09:56:01.239Z,100160
2023-03-23T09:57:00.475Z,100160
2023-03-23T09:58:08.786Z,100160
2023-03-23T09:59:10.194Z,100160
2023-03-23T10:00:06.788Z,100160
2023-03-23T10:01:05.662Z,100160
2023-03-23T10:02:10.221Z,100160
2023-03-23T10:03:10.215Z,100160
2023-03-23T10:04:04.962Z,100160
2023-03-23T10:05:10.197Z,100160
2023-03-23T10:06:00.299Z,100160
2023-03-23T10:07:08.522Z,100170
2023-03-23T10:08:01.519Z,100170
2023-03-23T10:09:02.369Z,100170
2023-03-23T10:10:01.045Z,100170
2023-03-23T10:11:10.195Z,100170
2023-03-23T10:12:10.204Z,100170
2023-03-23T10:13:04.539Z,100180
2023-03-23T10:14:06.610Z,100180
2023-03-23T10:15:04.613Z,100160
2023-03-23T10:16:01.270Z,100160
2023-03-23T10:17:09.194Z,100160
2023-03-23T10:18:10.194Z,100160
2023-03-23T10:19:10.215Z,100160
2023-03-23T10:20:10.209Z,100160
2023-03-23T10:21:00.964Z,100160
2023-03-23T10:22:04.203Z,100160
2023-03-23T10:23:00.249Z,100160
2023-03-23T10:24:01.466Z,100160
2023-03-23T10:25:10.194Z,100160
2023-03-23T10:26:10.209Z,100160
2023-03-23T10:27:00.241Z,100160
2023-03-23T10:28:10.196Z,100160
2023-03-23T10:29:09.146Z,100160
2023-03-23T10:30:05.313Z,100160
2023-03-23T10:31:01.053Z,100170
2023-03-23T10:32:03.675Z,100170
2023-03-23T10:33:03.494Z,100160
2023-03-23T10:34:09.781Z,100160
2023-03-23T10:35:03.579Z,100170
2023-03-23T10:36:10.230Z,100170
2023-03-23T10:37:10.214Z,100180
2023-03-23T10:38:01.985Z,100180
2023-03-23T10:39:03.330Z,100190
2023-03-23T10:40:01.108Z,100190
2023-03-23T10:41:03.639Z,100200
2023-03-23T10:42:00.962Z,100200
2023-03-23T10:43:00.649Z,100180
2023-03-23T10:44:00.555Z,100180
2023-03-23T10:45:10.215Z,100190
2023-03-23T10:46:02.370Z,100190
2023-03-23T10:47:03.543Z,100190
2023-03-23T10:48:00.244Z,100190
2023-03-23T10:49:01.628Z,100190
2023-03-23T10:50:01.942Z,100190
2023-03-23T10:51:02.088Z,100190
2023-03-23T10:52:06.132Z,100190
2023-03-23T10:53:00.631Z,100190
2023-03-23T10:54:01.600Z,100190
2023-03-23T10:55:03.532Z,100180
2023-03-23T10:56:00.895Z,100180
2023-03-23T10:57:02.537Z,100180
2023-03-23T10:58:02.408Z,100180
2023-03-23T10:59:10.196Z,100190
2023-03-23T11:00:10.219Z,100190
2023-03-23T11:01:01.666Z,100190
2023-03-23T11:02:01.970Z,100190
2023-03-23T11:03:06.911Z,100190
2023-03-23T11:04:00.546Z,100190
2023-03-23T11:05:07.875Z,100180
2023-03-23T11:06:02.474Z,100180
2023-03-23T11:07:01.239Z,100180
2023-03-23T11:08:00.460Z,100180
2023-03-23T11:09:01.876Z,100180
2023-03-23T11:10:05.710Z,100180
2023-03-23T11:11:09.506Z,100180
2023-03-23T11:12:02.585Z,100180
2023-03-23T11:13:00.266Z,100180
2023-03-23T11:14:01.738Z,100180
2023-03-23T11:15:04.614Z,100180
2023-03-23T11:16:00.558Z,100180
2023-03-23T11:17:10.356Z,100170
2023-03-23T11:18:01.903Z,100170
2023-03-23T11:19:10.218Z,100170
2023-03-23T11:20:09.422Z,100170
2023-03-23T11:21:01.105Z,100170
2023-03-23T11:22:06.792Z,100170
2023-03-23T11:23:00.529Z,100160
2023-03-23T11:24:09.270Z,100160
2023-03-23T11:25:01.536Z,100180
2023-03-23T11:26:09.795Z,100180
2023-03-23T11:27:00.760Z,100180
2023-03-23T11:28:00.889Z,100180
2023-03-23T11:29:01.261Z,100180
2023-03-23T11:30:07.641Z,100180
2023-03-23T11:31:02.341Z,100180
2023-03-23T11:32:00.254Z,100180
2023-03-23T11:33:01.711Z,100190
2023-03-23T11:34:06.320Z,100190
2023-03-23T11:35:15.634Z,100190
2023-03-23T11:36:00.323Z,100190
2023-03-23T11:37:02.615Z,100190
2023-03-23T11:38:00.365Z,100190
2023-03-23T11:39:00.291Z,100180
2023-03-23T11:40:02.721Z,100180
2023-03-23T11:41:00.826Z,100190
2023-03-23T11:42:09.319Z,100190
2023-03-23T11:43:01.281Z,100190
2023-03-23T11:44:03.713Z,100190
2023-03-23T11:45:10.221Z,100180
2023-03-23T11:46:03.835Z,100180
2023-03-23T11:47:03.572Z,100190
2023-03-23T11:48:09.845Z,100190
2023-03-23T11:49:10.238Z,100190
2023-03-23T11:50:04.511Z,100190
2023-03-23T11:51:02.744Z,100190
2023-03-23T11:52:05.334Z,100190
2023-03-23T11:53:02.366Z,100190
2023-03-23T11:54:10.200Z,100190
2023-03-23T11:55:09.890Z,100180
2023-03-23T11:56:06.432Z,100180
2023-03-23T11:57:00.293Z,100180
2023-03-23T11:58:04.485Z,100180
2023-03-23T11:59:00.609Z,100200
2023-03-23T12:00:00.326Z,100200
2023-03-23T12:01:05.780Z,100170
2023-03-23T12:02:16.928Z,100170
2023-03-23T12:03:05.789Z,100180
2023-03-23T12:04:03.532Z,100180
2023-03-23T12:05:10.217Z,100180
2023-03-23T12:06:03.627Z,100180
2023-03-23T12:07:10.202Z,100180
2023-03-23T12:08:00.246Z,100180
2023-03-23T12:09:10.202Z,100170
2023-03-23T12:10:07.239Z,100170
2023-03-23T12:11:06.433Z,100170
2023-03-23T12:12:10.209Z,100170
2023-03-23T12:13:11.939Z,100160
2023-03-23T12:14:10.197Z,100160
2023-03-23T12:15:08.510Z,100150
2023-03-23T12:16:05.702Z,100150
2023-03-23T12:17:07.611Z,100150
2023-03-23T12:18:10.197Z,100150
2023-03-23T12:19:06.425Z,100150
2023-03-23T12:20:00.247Z,100150
2023-03-23T12:21:08.488Z,100150
2023-03-23T12:22:06.653Z,100150
2023-03-23T12:23:01.278Z,100160
2023-03-23T12:24:02.349Z,100160
2023-03-23T12:25:10.217Z,100170
2023-03-23T12:26:00.242Z,100170
2023-03-23T12:27:10.194Z,100170
2023-03-23T12:28:07.590Z,100170
2023-03-23T12:29:07.711Z,100170
2023-03-23T12:30:10.212Z,100170
2023-03-23T12:31:07.548Z,100180
2023-03-23T12:32:03.527Z,100180
2023-03-23T12:33:10.220Z,100180
2023-03-23T12:34:06.462Z,100180
2023-03-23T12:35:08.977Z,100170
2023-03-23T12:36:00.259Z,100170
2023-03-23T12:37:10.213Z,100150
2023-03-23T12:38:07.677Z,100150